sensor_id;sensor_type;location;lat;lon;timestamp;pressure;altitude;pressure_sealevel;temperature;humidity
29169;BME280;16219;42.864;23.360;2022-12-18T00:02:20;96454.16;;;7.47;100.00
29169;BME280;16219;42.864;23.360;2022-12-18T00:04:47;96460.22;;;7.43;100.00
29169;BME280;16219;42.864;23.360;2022-12-18T00:07:14;96462.09;;;7.37;100.00
29169;BME280;16219;42.864;23.360;2022-12-18T00:09:41;96467.34;;;7.37;100.00
29169;BME280;16219;42.864;23.360;2022-12-18T00:12:08;96472.38;;;7.34;100.00
29169;BME280;16219;42.864;23.360;2022-12-18T00:14:36;96486.78;;;7.36;100.00
29169;BME280;16219;42.864;23.360;2022-12-18T00:17:06;96478.97;;;7.26;100.00
29169;BME280;16219;42.864;23.360;2022-12-18T00:19:34;96480.00;;;7.30;100.00
29169;BME280;16219;42.864;23.360;2022-12-18T00:22:01;96482.13;;;7.28;100.00
29169;BME280;16219;42.864;23.360;2022-12-18T00:24:29;96489.41;;;7.36;100.00
29169;BME280;16219;42.864;23.360;2022-12-18T00:26:56;96494.44;;;7.33;100.00
29169;BME280;16219;42.864;23.360;2022-12-18T00:29:23;96501.19;;;7.39;100.00
29169;BME280;16219;42.864;23.360;2022-12-18T00:31:50;96508.50;;;7.52;100.00
29169;BME280;16219;42.864;23.360;2022-12-18T00:34:18;96515.56;;;7.57;100.00
29169;BME280;16219;42.864;23.360;2022-12-18T00:36:47;96534.84;;;7.76;100.00
29169;BME280;16219;42.864;23.360;2022-12-18T00:39:14;96522.28;;;7.68;100.00
29169;BME280;16219;42.864;23.360;2022-12-18T00:41:44;96516.00;;;7.69;100.00
29169;BME280;16219;42.864;23.360;2022-12-18T00:44:28;96518.34;;;7.70;100.00
29169;BME280;16219;42.864;23.360;2022-12-18T00:46:55;96527.00;;;7.71;100.00
29169;BME280;16219;42.864;23.360;2022-12-18T00:49:25;96533.81;;;7.72;100.00
29169;BME280;16219;42.864;23.360;2022-12-18T00:51:52;96533.84;;;7.67;100.00
29169;BME280;16219;42.864;23.360;2022-12-18T00:54:20;96536.53;;;7.62;100.00
29169;BME280;16219;42.864;23.360;2022-12-18T00:56:47;96543.63;;;7.61;100.00
29169;BME280;16219;42.864;23.360;2022-12-18T00:59:14;96536.78;;;7.60;100.00
29169;BME280;16219;42.864;23.360;2022-12-18T01:01:41;96537.06;;;7.59;100.00
29169;BME280;16219;42.864;23.360;2022-12-18T01:04:08;96548.69;;;7.42;100.00
29169;BME280;16219;42.864;23.360;2022-12-18T01:06:38;96548.19;;;7.40;100.00
29169;BME280;16219;42.864;23.360;2022-12-18T01:09:05;96550.06;;;7.30;100.00
29169;BME280;16219;42.864;23.360;2022-12-18T01:11:35;96557.78;;;7.11;100.00
29169;BME280;16219;42.864;23.360;2022-12-18T01:14:04;96551.22;;;7.08;100.00
29169;BME280;16219;42.864;23.360;2022-12-18T01:16:31;96581.34;;;7.21;100.00
29169;BME280;16219;42.864;23.360;2022-12-18T01:18:58;96571.44;;;7.03;100.00
29169;BME280;16219;42.864;23.360;2022-12-18T01:21:26;96551.28;;;6.93;100.00
29169;BME280;16219;42.864;23.360;2022-12-18T01:23:56;96578.28;;;6.98;100.00
29169;BME280;16219;42.864;23.360;2022-12-18T01:26:24;96566.25;;;6.82;100.00
29169;BME280;16219;42.864;23.360;2022-12-18T01:28:54;96571.25;;;6.79;100.00
29169;BME280;16219;42.864;23.360;2022-12-18T01:31:24;96579.13;;;6.79;100.00
29169;BME280;16219;42.864;23.360;2022-12-18T01:33:52;96596.16;;;6.86;100.00
29169;BME280;16219;42.864;23.360;2022-12-18T01:36:21;96601.13;;;6.83;100.00
29169;BME280;16219;42.864;23.360;2022-12-18T01:38:49;96605.88;;;6.81;100.00
29169;BME280;16219;42.864;23.360;2022-12-18T01:41:19;96600.91;;;6.64;100.00
29169;BME280;16219;42.864;23.360;2022-12-18T01:43:50;96574.19;;;6.41;100.00
29169;BME280;16219;42.864;23.360;2022-12-18T01:46:20;96604.34;;;6.59;100.00
29169;BME280;16219;42.864;23.360;2022-12-18T01:48:52;96591.50;;;6.53;100.00
29169;BME280;16219;42.864;23.360;2022-12-18T01:51:20;96583.63;;;6.47;100.00
29169;BME280;16219;42.864;23.360;2022-12-18T01:53:48;96590.19;;;6.50;100.00
29169;BME280;16219;42.864;23.360;2022-12-18T01:56:18;96594.09;;;6.58;100.00
29169;BME280;16219;42.864;23.360;2022-12-18T01:58:54;96597.50;;;6.63;100.00
29169;BME280;16219;42.864;23.360;2022-12-18T02:01:24;96603.78;;;6.78;100.00
29169;BME280;16219;42.864;23.360;2022-12-18T02:03:52;96613.19;;;6.84;100.00
29169;BME280;16219;42.864;23.360;2022-12-18T02:06:25;96592.25;;;6.73;100.00
29169;BME280;16219;42.864;23.360;2022-12-18T02:09:05;96588.03;;;6.78;100.00
29169;BME280;16219;42.864;23.360;2022-12-18T02:11:41;96599.84;;;6.80;100.00
29169;BME280;16219;42.864;23.360;2022-12-18T02:14:19;96612.09;;;7.00;100.00
29169;BME280;16219;42.864;23.360;2022-12-18T02:16:59;96588.53;;;6.90;100.00
29169;BME280;16219;42.864;23.360;2022-12-18T02:19:42;96621.81;;;7.05;100.00
29169;BME280;16219;42.864;23.360;2022-12-18T02:22:27;96599.28;;;6.83;100.00
29169;BME280;16219;42.864;23.360;2022-12-18T02:25:16;96635.47;;;7.01;100.00
29169;BME280;16219;42.864;23.360;2022-12-18T02:27:50;96624.97;;;7.01;100.00
29169;BME280;16219;42.864;23.360;2022-12-18T02:30:20;96616.06;;;6.92;100.00
29169;BME280;16219;42.864;23.360;2022-12-18T02:32:50;96636.50;;;7.06;100.00
29169;BME280;16219;42.864;23.360;2022-12-18T02:35:22;96649.06;;;7.09;100.00
29169;BME280;16219;42.864;23.360;2022-12-18T02:37:54;96655.91;;;7.05;100.00
29169;BME280;16219;42.864;23.360;2022-12-18T02:40:24;96636.53;;;6.95;100.00
29169;BME280;16219;42.864;23.360;2022-12-18T02:42:54;96633.91;;;6.90;100.00
29169;BME280;16219;42.864;23.360;2022-12-18T02:45:23;96639.16;;;6.90;100.00
29169;BME280;16219;42.864;23.360;2022-12-18T02:47:51;96632.88;;;6.86;100.00
29169;BME280;16219;42.864;23.360;2022-12-18T02:50:23;96640.47;;;6.88;100.00
29169;BME280;16219;42.864;23.360;2022-12-18T02:53:03;96658.81;;;6.98;100.00
29169;BME280;16219;42.864;23.360;2022-12-18T02:55:44;96654.38;;;6.93;100.00
29169;BME280;16219;42.864;23.360;2022-12-18T02:58:22;96641.78;;;6.85;100.00
29169;BME280;16219;42.864;23.360;2022-12-18T03:01:01;96641.00;;;6.85;100.00
29169;BME280;16219;42.864;23.360;2022-12-18T03:03:33;96653.88;;;6.76;100.00
29169;BME280;16219;42.864;23.360;2022-12-18T03:06:06;96664.88;;;6.88;100.00
29169;BME280;16219;42.864;23.360;2022-12-18T03:08:38;96648.63;;;6.81;100.00
29169;BME280;16219;42.864;23.360;2022-12-18T03:11:08;96648.63;;;6.76;100.00
29169;BME280;16219;42.864;23.360;2022-12-18T03:13:43;96664.38;;;6.76;100.00
29169;BME280;16219;42.864;23.360;2022-12-18T03:16:21;96662.53;;;6.71;100.00
29169;BME280;16219;42.864;23.360;2022-12-18T03:18:52;96659.38;;;6.69;100.00
29169;BME280;16219;42.864;23.360;2022-12-18T03:21:28;96660.19;;;6.60;100.00
29169;BME280;16219;42.864;23.360;2022-12-18T03:23:58;96654.16;;;6.59;100.00
29169;BME280;16219;42.864;23.360;2022-12-18T03:26:27;96700.00;;;6.67;100.00
29169;BME280;16219;42.864;23.360;2022-12-18T03:29:04;96683.25;;;6.53;100.00
29169;BME280;16219;42.864;23.360;2022-12-18T03:31:39;96700.56;;;6.59;100.00
29169;BME280;16219;42.864;23.360;2022-12-18T03:34:12;96708.66;;;6.57;100.00
29169;BME280;16219;42.864;23.360;2022-12-18T03:36:45;96685.59;;;6.49;100.00
29169;BME280;16219;42.864;23.360;2022-12-18T03:39:13;96697.66;;;6.50;100.00
29169;BME280;16219;42.864;23.360;2022-12-18T03:41:51;96701.59;;;6.53;100.00
29169;BME280;16219;42.864;23.360;2022-12-18T03:44:29;96703.16;;;6.54;100.00
29169;BME280;16219;42.864;23.360;2022-12-18T03:47:03;96725.72;;;6.65;100.00
29169;BME280;16219;42.864;23.360;2022-12-18T03:49:36;96702.38;;;6.53;100.00
29169;BME280;16219;42.864;23.360;2022-12-18T03:52:09;96738.03;;;6.69;100.00
29169;BME280;16219;42.864;23.360;2022-12-18T03:54:41;96728.84;;;6.57;100.00
29169;BME280;16219;42.864;23.360;2022-12-18T03:57:16;96727.81;;;6.53;100.00
29169;BME280;16219;42.864;23.360;2022-12-18T03:59:51;96745.13;;;6.64;100.00
29169;BME280;16219;42.864;23.360;2022-12-18T04:02:24;96746.19;;;6.68;100.00
29169;BME280;16219;42.864;23.360;2022-12-18T04:04:56;96757.19;;;6.70;100.00
29169;BME280;16219;42.864;23.360;2022-12-18T04:07:26;96741.97;;;6.57;100.00
29169;BME280;16219;42.864;23.360;2022-12-18T04:09:59;96728.59;;;6.43;100.00
29169;BME280;16219;42.864;23.360;2022-12-18T04:12:29;96734.88;;;6.52;100.00
29169;BME280;16219;42.864;23.360;2022-12-18T04:14:58;96732.78;;;6.49;100.00
29169;BME280;16219;42.864;23.360;2022-12-18T04:17:25;96734.59;;;6.54;100.00
29169;BME280;16219;42.864;23.360;2022-12-18T04:19:53;96754.03;;;6.68;100.00
29169;BME280;16219;42.864;23.360;2022-12-18T04:22:20;96744.06;;;6.60;100.00
29169;BME280;16219;42.864;23.360;2022-12-18T04:24:52;96757.69;;;6.62;100.00
29169;BME280;16219;42.864;23.360;2022-12-18T04:27:28;96755.06;;;6.51;100.00
29169;BME280;16219;42.864;23.360;2022-12-18T04:29:59;96762.94;;;6.46;100.00
29169;BME280;16219;42.864;23.360;2022-12-18T04:32:27;96768.41;;;6.40;100.00
29169;BME280;16219;42.864;23.360;2022-12-18T04:34:54;96774.97;;;6.53;100.00
29169;BME280;16219;42.864;23.360;2022-12-18T04:37:21;96777.59;;;6.53;100.00
29169;BME280;16219;42.864;23.360;2022-12-18T04:39:49;96787.03;;;6.54;100.00
29169;BME280;16219;42.864;23.360;2022-12-18T04:42:24;96774.19;;;6.42;100.00
29169;BME280;16219;42.864;23.360;2022-12-18T04:44:51;96790.16;;;6.45;100.00
29169;BME280;16219;42.864;23.360;2022-12-18T04:47:20;96783.59;;;6.33;100.00
29169;BME280;16219;42.864;23.360;2022-12-18T04:49:47;96813.25;;;6.48;100.00
29169;BME280;16219;42.864;23.360;2022-12-18T04:52:14;96806.66;;;6.36;100.00
29169;BME280;16219;42.864;23.360;2022-12-18T04:54:41;96796.16;;;6.31;100.00
29169;BME280;16219;42.864;23.360;2022-12-18T04:57:08;96811.13;;;6.35;100.00
29169;BME280;16219;42.864;23.360;2022-12-18T04:59:35;96825.56;;;6.48;100.00
29169;BME280;16219;42.864;23.360;2022-12-18T05:02:02;96803.75;;;6.32;100.00
29169;BME280;16219;42.864;23.360;2022-12-18T05:04:30;96801.69;;;6.29;100.00
29169;BME280;16219;42.864;23.360;2022-12-18T05:06:58;96805.59;;;6.26;100.00
29169;BME280;16219;42.864;23.360;2022-12-18T05:09:25;96817.41;;;6.29;100.00
29169;BME280;16219;42.864;23.360;2022-12-18T05:11:53;96816.34;;;6.30;100.00
29169;BME280;16219;42.864;23.360;2022-12-18T05:14:20;96834.69;;;6.35;100.00
29169;BME280;16219;42.864;23.360;2022-12-18T05:16:48;96826.28;;;6.28;100.00
29169;BME280;16219;42.864;23.360;2022-12-18T05:19:15;96825.22;;;6.24;100.00
29169;BME280;16219;42.864;23.360;2022-12-18T05:21:44;96854.34;;;6.33;100.00
29169;BME280;16219;42.864;23.360;2022-12-18T05:24:11;96847.22;;;6.18;100.00
29169;BME280;16219;42.864;23.360;2022-12-18T05:26:38;96850.31;;;6.10;100.00
29169;BME280;16219;42.864;23.360;2022-12-18T05:29:05;96858.72;;;6.12;100.00
29169;BME280;16219;42.864;23.360;2022-12-18T05:31:32;96874.44;;;6.12;100.00
29169;BME280;16219;42.864;23.360;2022-12-18T05:33:59;96889.72;;;6.25;100.00
29169;BME280;16219;42.864;23.360;2022-12-18T05:36:26;96869.41;;;6.05;100.00
29169;BME280;16219;42.864;23.360;2022-12-18T05:38:55;96878.56;;;6.03;100.00
29169;BME280;16219;42.864;23.360;2022-12-18T05:41:22;96875.94;;;6.03;100.00
29169;BME280;16219;42.864;23.360;2022-12-18T05:43:49;96912.97;;;6.16;100.00
29169;BME280;16219;42.864;23.360;2022-12-18T05:46:17;96906.44;;;6.19;100.00
29169;BME280;16219;42.864;23.360;2022-12-18T05:48:45;96894.34;;;6.08;100.00
29169;BME280;16219;42.864;23.360;2022-12-18T05:51:14;96888.53;;;6.00;100.00
29169;BME280;16219;42.864;23.360;2022-12-18T05:53:42;96892.19;;;5.99;100.00
29169;BME280;16219;42.864;23.360;2022-12-18T05:56:12;96921.06;;;6.10;100.00
29169;BME280;16219;42.864;23.360;2022-12-18T05:58:40;96900.81;;;5.95;100.00
29169;BME280;16219;42.864;23.360;2022-12-18T06:01:09;96906.31;;;5.98;100.00
29169;BME280;16219;42.864;23.360;2022-12-18T06:03:37;96902.91;;;5.98;100.00
29169;BME280;16219;42.864;23.360;2022-12-18T06:06:13;96902.66;;;5.99;100.00
29169;BME280;16219;42.864;23.360;2022-12-18T06:08:40;96917.63;;;6.04;100.00
29169;BME280;16219;42.864;23.360;2022-12-18T06:11:07;96921.06;;;6.10;100.00
29169;BME280;16219;42.864;23.360;2022-12-18T06:13:36;96921.31;;;6.08;100.00
29169;BME280;16219;42.864;23.360;2022-12-18T06:16:04;96933.66;;;6.13;100.00
29169;BME280;16219;42.864;23.360;2022-12-18T06:18:32;96951.22;;;6.17;100.00
29169;BME280;16219;42.864;23.360;2022-12-18T06:20:59;96928.34;;;6.03;100.00
29169;BME280;16219;42.864;23.360;2022-12-18T06:23:27;96921.81;;;6.05;100.00
29169;BME280;16219;42.864;23.360;2022-12-18T06:25:54;96931.31;;;6.16;100.00
29169;BME280;16219;42.864;23.360;2022-12-18T06:28:21;96939.97;;;6.17;100.00
29169;BME280;16219;42.864;23.360;2022-12-18T06:30:50;96929.72;;;6.15;100.00
29169;BME280;16219;42.864;23.360;2022-12-18T06:33:18;96946.81;;;6.23;100.00
29169;BME280;16219;42.864;23.360;2022-12-18T06:35:45;96942.56;;;6.12;100.00
29169;BME280;16219;42.864;23.360;2022-12-18T06:38:13;96946.19;;;6.11;100.00
29169;BME280;16219;42.864;23.360;2022-12-18T06:40:40;96957.13;;;5.97;100.00
29169;BME280;16219;42.864;23.360;2022-12-18T06:43:08;96953.97;;;5.95;100.00
29169;BME280;16219;42.864;23.360;2022-12-18T06:45:35;96991.19;;;6.03;100.00
29169;BME280;16219;42.864;23.360;2022-12-18T06:48:04;96972.16;;;5.80;100.00
29169;BME280;16219;42.864;23.360;2022-12-18T06:50:31;96975.72;;;5.69;100.00
29169;BME280;16219;42.864;23.360;2022-12-18T06:52:59;96980.34;;;5.57;100.00
29169;BME280;16219;42.864;23.360;2022-12-18T06:55:26;96998.16;;;5.60;100.00
29169;BME280;16219;42.864;23.360;2022-12-18T06:57:53;96994.91;;;5.47;100.00
29169;BME280;16219;42.864;23.360;2022-12-18T07:00:21;96980.69;;;5.38;100.00
29169;BME280;16219;42.864;23.360;2022-12-18T07:02:48;96985.44;;;5.41;100.00
29169;BME280;16219;42.864;23.360;2022-12-18T07:05:16;96984.44;;;5.47;100.00
29169;BME280;16219;42.864;23.360;2022-12-18T07:07:43;96975.56;;;5.48;100.00
29169;BME280;16219;42.864;23.360;2022-12-18T07:10:11;97009.41;;;5.60;100.00
29169;BME280;16219;42.864;23.360;2022-12-18T07:12:38;96997.69;;;5.63;100.00
29169;BME280;16219;42.864;23.360;2022-12-18T07:15:06;97000.34;;;5.68;100.00
29169;BME280;16219;42.864;23.360;2022-12-18T07:17:33;96998.16;;;5.60;100.00
29169;BME280;16219;42.864;23.360;2022-12-18T07:20:00;96994.00;;;5.64;100.00
29169;BME280;16219;42.864;23.360;2022-12-18T07:22:30;97000.88;;;5.70;100.00
29169;BME280;16219;42.864;23.360;2022-12-18T07:24:57;97002.94;;;5.68;100.00
29169;BME280;16219;42.864;23.360;2022-12-18T07:27:24;96999.34;;;5.74;100.00
29169;BME280;16219;42.864;23.360;2022-12-18T07:29:51;97007.22;;;5.74;100.00
29169;BME280;16219;42.864;23.360;2022-12-18T07:32:18;97018.50;;;5.80;100.00
29169;BME280;16219;42.864;23.360;2022-12-18T07:34:46;97018.69;;;5.73;100.00
29169;BME280;16219;42.864;23.360;2022-12-18T07:37:13;97009.50;;;5.65;100.00
29169;BME280;16219;42.864;23.360;2022-12-18T07:39:41;97011.28;;;5.65;100.00
29169;BME280;16219;42.864;23.360;2022-12-18T07:42:09;97014.38;;;5.57;100.00
29169;BME280;16219;42.864;23.360;2022-12-18T07:44:53;97014.38;;;5.57;100.00
29169;BME280;16219;42.864;23.360;2022-12-18T07:47:20;97029.09;;;5.63;100.00
29169;BME280;16219;42.864;23.360;2022-12-18T07:49:47;97041.16;;;5.69;100.00
29169;BME280;16219;42.864;23.360;2022-12-18T07:52:14;97030.56;;;5.54;100.00
29169;BME280;16219;42.864;23.360;2022-12-18T07:54:43;97040.91;;;5.43;100.00
29169;BME280;16219;42.864;23.360;2022-12-18T07:57:10;97043.00;;;5.41;100.00
29169;BME280;16219;42.864;23.360;2022-12-18T07:59:40;97057.50;;;5.49;100.00
29169;BME280;16219;42.864;23.360;2022-12-18T08:02:07;97039.84;;;5.39;100.00
29169;BME280;16219;42.864;23.360;2022-12-18T08:04:35;97073.06;;;5.61;100.00
29169;BME280;16219;42.864;23.360;2022-12-18T08:07:02;97037.72;;;5.36;100.00
29169;BME280;16219;42.864;23.360;2022-12-18T08:09:29;97060.91;;;5.49;100.00
29169;BME280;16219;42.864;23.360;2022-12-18T08:11:59;97055.47;;;5.34;100.00
29169;BME280;16219;42.864;23.360;2022-12-18T08:14:26;97079.94;;;5.45;100.00
29169;BME280;16219;42.864;23.360;2022-12-18T08:16:53;97085.25;;;5.50;100.00
29169;BME280;16219;42.864;23.360;2022-12-18T08:19:20;97064.63;;;5.32;100.00
29169;BME280;16219;42.864;23.360;2022-12-18T08:21:48;97068.09;;;5.37;100.00
29169;BME280;16219;42.864;23.360;2022-12-18T08:24:15;97080.75;;;5.45;100.00
29169;BME280;16219;42.864;23.360;2022-12-18T08:26:42;97065.81;;;5.46;100.00
29169;BME280;16219;42.864;23.360;2022-12-18T08:29:11;97068.31;;;5.58;100.00
29169;BME280;16219;42.864;23.360;2022-12-18T08:31:38;97068.88;;;5.65;100.00
29169;BME280;16219;42.864;23.360;2022-12-18T08:34:05;97076.56;;;5.71;100.00
29169;BME280;16219;42.864;23.360;2022-12-18T08:36:32;97082.41;;;5.79;100.00
29169;BME280;16219;42.864;23.360;2022-12-18T08:38:59;97102.13;;;5.86;100.00
29169;BME280;16219;42.864;23.360;2022-12-18T08:41:26;97115.31;;;5.96;100.00
29169;BME280;16219;42.864;23.360;2022-12-18T08:43:54;97097.06;;;5.80;100.00
29169;BME280;16219;42.864;23.360;2022-12-18T08:46:55;97096.97;;;5.69;100.00
29169;BME280;16219;42.864;23.360;2022-12-18T08:49:23;97126.28;;;5.93;100.00
29169;BME280;16219;42.864;23.360;2022-12-18T08:51:54;97105.97;;;5.79;100.00
29169;BME280;16219;42.864;23.360;2022-12-18T08:54:23;97091.00;;;5.74;100.00
29169;BME280;16219;42.864;23.360;2022-12-18T08:56:50;97108.03;;;5.76;100.00
29169;BME280;16219;42.864;23.360;2022-12-18T08:59:18;97096.72;;;5.71;100.00
29169;BME280;16219;42.864;23.360;2022-12-18T09:01:49;97097.25;;;5.73;100.00
29169;BME280;16219;42.864;23.360;2022-12-18T09:04:18;97095.91;;;5.92;100.00
29169;BME280;16219;42.864;23.360;2022-12-18T09:06:45;97093.03;;;5.94;100.00
29169;BME280;16219;42.864;23.360;2022-12-18T09:09:13;97119.16;;;6.16;100.00
29169;BME280;16219;42.864;23.360;2022-12-18T09:11:40;97098.69;;;6.08;100.00
29169;BME280;16219;42.864;23.360;2022-12-18T09:14:09;97109.84;;;6.30;100.00
29169;BME280;16219;42.864;23.360;2022-12-18T09:16:36;97095.03;;;6.14;100.00
29169;BME280;16219;42.864;23.360;2022-12-18T09:19:04;97115.13;;;6.35;100.00
29169;BME280;16219;42.864;23.360;2022-12-18T09:21:35;97102.41;;;6.17;100.00
29169;BME280;16219;42.864;23.360;2022-12-18T09:24:03;97101.22;;;6.03;100.00
29169;BME280;16219;42.864;23.360;2022-12-18T09:26:31;97098.59;;;6.03;100.00
29169;BME280;16219;42.864;23.360;2022-12-18T09:29:00;97105.72;;;6.07;100.00
29169;BME280;16219;42.864;23.360;2022-12-18T09:31:27;97098.53;;;5.92;100.00
29169;BME280;16219;42.864;23.360;2022-12-18T09:33:54;97107.34;;;5.86;100.00
29169;BME280;16219;42.864;23.360;2022-12-18T09:36:22;97102.59;;;5.83;100.00
29169;BME280;16219;42.864;23.360;2022-12-18T09:38:50;97096.06;;;5.86;100.00
29169;BME280;16219;42.864;23.360;2022-12-18T09:41:33;97123.28;;;6.07;100.00
29169;BME280;16219;42.864;23.360;2022-12-18T09:44:14;97105.38;;;5.98;100.00
29169;BME280;16219;42.864;23.360;2022-12-18T09:46:47;97100.44;;;6.02;100.00
29169;BME280;16219;42.864;23.360;2022-12-18T09:49:18;97126.03;;;6.22;100.00
29169;BME280;16219;42.864;23.360;2022-12-18T09:51:50;97121.38;;;6.29;100.00
29169;BME280;16219;42.864;23.360;2022-12-18T09:54:23;97107.13;;;6.20;100.00
29169;BME280;16219;42.864;23.360;2022-12-18T09:56:52;97101.97;;;6.25;100.00
29169;BME280;16219;42.864;23.360;2022-12-18T09:59:23;97109.38;;;6.33;100.00
29169;BME280;16219;42.864;23.360;2022-12-18T10:01:51;97096.66;;;6.20;100.00
29169;BME280;16219;42.864;23.360;2022-12-18T10:04:18;97109.81;;;6.25;100.00
29169;BME280;16219;42.864;23.360;2022-12-18T10:06:51;97097.66;;;6.14;100.00
29169;BME280;16219;42.864;23.360;2022-12-18T10:09:28;97119.03;;;6.33;100.00
29169;BME280;16219;42.864;23.360;2022-12-18T10:12:04;97109.22;;;6.18;100.00
29169;BME280;16219;42.864;23.360;2022-12-18T10:14:39;97114.28;;;6.24;100.00
29169;BME280;16219;42.864;23.360;2022-12-18T10:17:17;97125.81;;;6.29;100.00
29169;BME280;16219;42.864;23.360;2022-12-18T10:19:52;97102.88;;;6.09;100.00
29169;BME280;16219;42.864;23.360;2022-12-18T10:22:32;97112.50;;;6.03;100.00
29169;BME280;16219;42.864;23.360;2022-12-18T10:25:12;97110.56;;;5.93;100.00
29169;BME280;16219;42.864;23.360;2022-12-18T10:27:42;97115.44;;;5.85;100.00
29169;BME280;16219;42.864;23.360;2022-12-18T10:30:14;97118.78;;;5.80;100.00
29169;BME280;16219;42.864;23.360;2022-12-18T10:32:41;97109.81;;;5.71;100.00
29169;BME280;16219;42.864;23.360;2022-12-18T10:35:16;97110.97;;;5.58;100.00
29169;BME280;16219;42.864;23.360;2022-12-18T10:38:02;97139.03;;;5.63;100.00
29169;BME280;16219;42.864;23.360;2022-12-18T10:40:31;97134.72;;;5.51;100.00
29169;BME280;16219;42.864;23.360;2022-12-18T10:43:09;97111.00;;;5.36;100.00
29169;BME280;16219;42.864;23.360;2022-12-18T10:45:37;97111.53;;;5.38;100.00
29169;BME280;16219;42.864;23.360;2022-12-18T10:48:16;97105.41;;;5.28;100.00
29169;BME280;16219;42.864;23.360;2022-12-18T10:50:47;97124.03;;;5.31;100.00
29169;BME280;16219;42.864;23.360;2022-12-18T10:53:20;97136.44;;;5.41;100.00
29169;BME280;16219;42.864;23.360;2022-12-18T10:55:52;97114.16;;;5.16;100.00
29169;BME280;16219;42.864;23.360;2022-12-18T10:58:23;97130.28;;;5.30;100.00
29169;BME280;16219;42.864;23.360;2022-12-18T11:01:09;97114.81;;;5.29;100.00
29169;BME280;16219;42.864;23.360;2022-12-18T11:03:38;97112.03;;;5.35;100.00
29169;BME280;16219;42.864;23.360;2022-12-18T11:06:09;97128.75;;;5.56;100.00
29169;BME280;16219;42.864;23.360;2022-12-18T11:08:37;97123.84;;;5.65;100.00
29169;BME280;16219;42.864;23.360;2022-12-18T11:11:20;97107.00;;;5.56;100.00
29169;BME280;16219;42.864;23.360;2022-12-18T11:13:59;97123.78;;;5.82;100.00
29169;BME280;16219;42.864;23.360;2022-12-18T11:16:29;97112.16;;;5.72;100.00
29169;BME280;16219;42.864;23.360;2022-12-18T11:19:14;97107.50;;;5.74;100.00
29169;BME280;16219;42.864;23.360;2022-12-18T11:21:44;97120.28;;;5.71;100.00
29169;BME280;16219;42.864;23.360;2022-12-18T11:24:20;97111.81;;;5.64;100.00
29169;BME280;16219;42.864;23.360;2022-12-18T11:26:51;97118.47;;;5.49;100.00
29169;BME280;16219;42.864;23.360;2022-12-18T11:29:24;97119.50;;;5.48;100.00
29169;BME280;16219;42.864;23.360;2022-12-18T11:32:19;97118.34;;;5.39;100.00
29169;BME280;16219;42.864;23.360;2022-12-18T11:34:51;97107.38;;;5.42;100.00
29169;BME280;16219;42.864;23.360;2022-12-18T11:37:20;97117.44;;;5.50;100.00
29169;BME280;16219;42.864;23.360;2022-12-18T11:39:51;97150.97;;;5.75;100.00
29169;BME280;16219;42.864;23.360;2022-12-18T11:42:27;97122.22;;;5.59;100.00
29169;BME280;16219;42.864;23.360;2022-12-18T11:45:02;97121.97;;;5.60;100.00
29169;BME280;16219;42.864;23.360;2022-12-18T11:47:38;97133.47;;;5.81;100.00
29169;BME280;16219;42.864;23.360;2022-12-18T11:50:13;97117.09;;;5.69;100.00
29169;BME280;16219;42.864;23.360;2022-12-18T11:52:41;97104.00;;;5.69;100.00
29169;BME280;16219;42.864;23.360;2022-12-18T11:55:11;97134.03;;;5.83;100.00
29169;BME280;16219;42.864;23.360;2022-12-18T11:57:47;97125.06;;;5.79;100.00
29169;BME280;16219;42.864;23.360;2022-12-18T12:00:18;97116.47;;;5.84;100.00
29169;BME280;16219;42.864;23.360;2022-12-18T12:03:08;97147.41;;;6.09;100.00
29169;BME280;16219;42.864;23.360;2022-12-18T12:05:48;97127.22;;;6.09;100.00
29169;BME280;16219;42.864;23.360;2022-12-18T12:08:22;97122.28;;;6.13;100.00
29169;BME280;16219;42.864;23.360;2022-12-18T12:11:00;97135.44;;;6.18;100.00
29169;BME280;16219;42.864;23.360;2022-12-18T12:13:39;97105.44;;;6.04;100.00
29169;BME280;16219;42.864;23.360;2022-12-18T12:16:15;97104.63;;;6.03;100.00
29169;BME280;16219;42.864;23.360;2022-12-18T12:18:56;97110.13;;;6.01;100.00
29169;BME280;16219;42.864;23.360;2022-12-18T12:21:32;97116.75;;;5.82;100.00
29169;BME280;16219;42.864;23.360;2022-12-18T12:24:02;97139.69;;;5.97;100.00
29169;BME280;16219;42.864;23.360;2022-12-18T12:26:38;97111.19;;;5.79;100.00
29169;BME280;16219;42.864;23.360;2022-12-18T12:29:33;97141.66;;;5.90;100.00
29169;BME280;16219;42.864;23.360;2022-12-18T12:32:11;97127.69;;;5.79;100.00
29169;BME280;16219;42.864;23.360;2022-12-18T12:34:51;97129.38;;;5.90;100.00
29169;BME280;16219;42.864;23.360;2022-12-18T12:37:28;97120.97;;;5.88;100.00
29169;BME280;16219;42.864;23.360;2022-12-18T12:40:02;97146.97;;;6.17;100.00
29169;BME280;16219;42.864;23.360;2022-12-18T12:42:32;97135.34;;;6.08;100.00
29169;BME280;16219;42.864;23.360;2022-12-18T12:45:38;97146.84;;;6.34;100.00
29169;BME280;16219;42.864;23.360;2022-12-18T12:48:16;97123.44;;;6.27;100.00
29169;BME280;16219;42.864;23.360;2022-12-18T12:50:46;97118.78;;;6.29;100.00
29169;BME280;16219;42.864;23.360;2022-12-18T12:53:25;97120.94;;;6.37;100.00
29169;BME280;16219;42.864;23.360;2022-12-18T12:55:53;97135.94;;;6.47;100.00
29169;BME280;16219;42.864;23.360;2022-12-18T12:58:29;97125.94;;;6.44;100.00
29169;BME280;16219;42.864;23.360;2022-12-18T13:01:12;97130.47;;;6.54;100.00
29169;BME280;16219;42.864;23.360;2022-12-18T13:03:46;97131.81;;;6.56;100.00
29169;BME280;16219;42.864;23.360;2022-12-18T13:06:23;97128.88;;;6.47;100.00
29169;BME280;16219;42.864;23.360;2022-12-18T13:08:55;97131.81;;;6.56;100.00
29169;BME280;16219;42.864;23.360;2022-12-18T13:11:35;97130.53;;;6.59;100.00